sensor_id;sensor_type;location;lat;lon;timestamp;temperature;humidity
52397;DHT22;38322;53.108;6.308;2022-09-12T05:02:45;13.30;99.90
52397;DHT22;38322;53.108;6.308;2022-09-12T05:05:11;13.30;99.90
52397;DHT22;38322;53.108;6.308;2022-09-12T05:07:37;13.40;99.90
52397;DHT22;38322;53.108;6.308;2022-09-12T05:10:03;13.40;99.90
52397;DHT22;38322;53.108;6.308;2022-09-12T05:12:30;13.40;99.90
52397;DHT22;38322;53.108;6.308;2022-09-12T05:14:56;13.40;99.90
52397;DHT22;38322;53.108;6.308;2022-09-12T05:17:22;13.40;99.90
52397;DHT22;38322;53.108;6.308;2022-09-12T05:19:48;13.40;99.90
52397;DHT22;38322;53.108;6.308;2022-09-12T05:22:14;13.50;99.90
52397;DHT22;38322;53.108;6.308;2022-09-12T05:24:39;13.50;99.90
52397;DHT22;38322;53.108;6.308;2022-09-12T05:27:08;13.50;99.90
52397;DHT22;38322;53.108;6.308;2022-09-12T05:29:34;13.50;99.90
52397;DHT22;38322;53.108;6.308;2022-09-12T05:32:01;13.60;99.90
52397;DHT22;38322;53.108;6.308;2022-09-12T05:34:27;13.60;99.90
52397;DHT22;38322;53.108;6.308;2022-09-12T05:36:52;13.60;99.90
52397;DHT22;38322;53.108;6.308;2022-09-12T05:39:18;13.70;99.90
52397;DHT22;38322;53.108;6.308;2022-09-12T05:41:45;13.70;99.90
52397;DHT22;38322;53.108;6.308;2022-09-12T05:44:12;13.70;99.90
52397;DHT22;38322;53.108;6.308;2022-09-12T05:46:41;13.70;99.90
52397;DHT22;38322;53.108;6.308;2022-09-12T05:49:09;13.80;99.90
52397;DHT22;38322;53.108;6.308;2022-09-12T05:51:38;13.80;99.90
52397;DHT22;38322;53.108;6.308;2022-09-12T05:54:06;13.80;99.90
52397;DHT22;38322;53.108;6.308;2022-09-12T05:56:36;13.80;99.90
52397;DHT22;38322;53.108;6.308;2022-09-12T05:59:06;13.90;99.90
52397;DHT22;38322;53.108;6.308;2022-09-12T06:01:33;13.90;99.90
52397;DHT22;38322;53.108;6.308;2022-09-12T06:04:02;13.90;99.90
52397;DHT22;38322;53.108;6.308;2022-09-12T06:06:30;13.90;99.90
52397;DHT22;38322;53.108;6.308;2022-09-12T06:08:58;14.00;99.90
52397;DHT22;38322;53.108;6.308;2022-09-12T06:11:27;14.00;99.90
52397;DHT22;38322;53.108;6.308;2022-09-12T06:13:55;14.00;99.90
52397;DHT22;38322;53.108;6.308;2022-09-12T06:16:23;14.10;99.90
52397;DHT22;38322;53.108;6.308;2022-09-12T06:18:52;14.10;99.90
52397;DHT22;38322;53.108;6.308;2022-09-12T06:21:20;14.10;99.90
52397;DHT22;38322;53.108;6.308;2022-09-12T06:23:46;14.10;99.90
52397;DHT22;38322;53.108;6.308;2022-09-12T06:26:14;14.20;99.90
52397;DHT22;38322;53.108;6.308;2022-09-12T06:28:42;14.20;99.90
52397;DHT22;38322;53.108;6.308;2022-09-12T06:31:12;14.20;99.90
52397;DHT22;38322;53.108;6.308;2022-09-12T06:33:41;14.30;99.90
52397;DHT22;38322;53.108;6.308;2022-09-12T06:36:09;14.30;99.90
52397;DHT22;38322;53.108;6.308;2022-09-12T06:38:36;14.30;99.90
52397;DHT22;38322;53.108;6.308;2022-09-12T06:41:04;14.40;99.90
52397;DHT22;38322;53.108;6.308;2022-09-12T06:43:31;14.40;99.90
52397;DHT22;38322;53.108;6.308;2022-09-12T06:45:57;14.40;99.90
52397;DHT22;38322;53.108;6.308;2022-09-12T06:48:24;14.40;99.90
52397;DHT22;38322;53.108;6.308;2022-09-12T06:50:56;14.50;99.90
52397;DHT22;38322;53.108;6.308;2022-09-12T06:53:23;14.50;99.90
52397;DHT22;38322;53.108;6.308;2022-09-12T06:56:02;14.60;99.90
52397;DHT22;38322;53.108;6.308;2022-09-12T06:58:29;14.60;99.90
52397;DHT22;38322;53.108;6.308;2022-09-12T07:01:06;14.60;99.90
52397;DHT22;38322;53.108;6.308;2022-09-12T07:03:33;14.70;99.90
52397;DHT22;38322;53.108;6.308;2022-09-12T07:06:09;14.70;99.90
52397;DHT22;38322;53.108;6.308;2022-09-12T07:08:36;14.80;99.90
52397;DHT22;38322;53.108;6.308;2022-09-12T07:11:14;14.80;99.90
52397;DHT22;38322;53.108;6.308;2022-09-12T07:13:42;14.90;99.90
52397;DHT22;38322;53.108;6.308;2022-09-12T07:16:09;14.90;99.90
52397;DHT22;38322;53.108;6.308;2022-09-12T07:18:36;15.00;99.90
52397;DHT22;38322;53.108;6.308;2022-09-12T07:21:06;15.00;99.90
52397;DHT22;38322;53.108;6.308;2022-09-12T07:23:32;15.10;99.90
52397;DHT22;38322;53.108;6.308;2022-09-12T07:25:59;15.10;99.90
52397;DHT22;38322;53.108;6.308;2022-09-12T07:28:28;15.10;99.90
52397;DHT22;38322;53.108;6.308;2022-09-12T07:30:55;15.10;99.90
52397;DHT22;38322;53.108;6.308;2022-09-12T07:33:22;15.20;99.90
52397;DHT22;38322;53.108;6.308;2022-09-12T07:35:49;15.20;99.90
52397;DHT22;38322;53.108;6.308;2022-09-12T07:38:15;15.20;99.90
52397;DHT22;38322;53.108;6.308;2022-09-12T07:40:42;15.20;99.90
52397;DHT22;38322;53.108;6.308;2022-09-12T07:43:08;15.30;99.90
52397;DHT22;38322;53.108;6.308;2022-09-12T07:45:34;15.30;99.90
52397;DHT22;38322;53.108;6.308;2022-09-12T07:48:00;15.40;99.90
52397;DHT22;38322;53.108;6.308;2022-09-12T07:50:28;15.40;99.90
52397;DHT22;38322;53.108;6.308;2022-09-12T07:52:54;15.50;99.90
52397;DHT22;38322;53.108;6.308;2022-09-12T07:55:20;15.50;99.90
52397;DHT22;38322;53.108;6.308;2022-09-12T07:57:50;15.70;99.90
52397;DHT22;38322;53.108;6.308;2022-09-12T08:00:17;15.70;99.90
52397;DHT22;38322;53.108;6.308;2022-09-12T08:02:43;15.70;99.90
52397;DHT22;38322;53.108;6.308;2022-09-12T08:05:09;15.80;99.90
52397;DHT22;38322;53.108;6.308;2022-09-12T08:07:35;15.90;99.90
52397;DHT22;38322;53.108;6.308;2022-09-12T08:10:01;15.90;99.90
52397;DHT22;38322;53.108;6.308;2022-09-12T08:12:27;15.90;99.90
52397;DHT22;38322;53.108;6.308;2022-09-12T08:14:53;16.00;99.90
52397;DHT22;38322;53.108;6.308;2022-09-12T08:17:20;16.00;99.90
52397;DHT22;38322;53.108;6.308;2022-09-12T08:19:46;16.10;99.90
52397;DHT22;38322;53.108;6.308;2022-09-12T08:22:12;16.10;99.90
52397;DHT22;38322;53.108;6.308;2022-09-12T08:24:39;16.20;99.90
52397;DHT22;38322;53.108;6.308;2022-09-12T08:27:05;16.20;99.90
52397;DHT22;38322;53.108;6.308;2022-09-12T08:29:31;16.30;99.90
52397;DHT22;38322;53.108;6.308;2022-09-12T08:31:57;16.40;99.90
52397;DHT22;38322;53.108;6.308;2022-09-12T08:34:23;16.50;99.90
52397;DHT22;38322;53.108;6.308;2022-09-12T08:36:50;16.60;99.90
52397;DHT22;38322;53.108;6.308;2022-09-12T08:39:19;16.60;99.90
52397;DHT22;38322;53.108;6.308;2022-09-12T08:41:47;16.70;99.90
52397;DHT22;38322;53.108;6.308;2022-09-12T08:44:27;16.80;99.90
52397;DHT22;38322;53.108;6.308;2022-09-12T08:47:20;16.80;99.90
52397;DHT22;38322;53.108;6.308;2022-09-12T08:50:05;16.90;99.90
52397;DHT22;38322;53.108;6.308;2022-09-12T08:52:41;17.00;99.90
52397;DHT22;38322;53.108;6.308;2022-09-12T08:55:33;17.10;99.90
52397;DHT22;38322;53.108;6.308;2022-09-12T08:58:01;17.10;99.90
52397;DHT22;38322;53.108;6.308;2022-09-12T09:01:06;17.20;99.90
52397;DHT22;38322;53.108;6.308;2022-09-12T09:15:22;17.60;99.90
52397;DHT22;38322;53.108;6.308;2022-09-12T09:18:03;17.70;99.90
52397;DHT22;38322;53.108;6.308;2022-09-12T09:20:37;17.70;99.90
52397;DHT22;38322;53.108;6.308;2022-09-12T09:28:22;18.10;99.90
52397;DHT22;38322;53.108;6.308;2022-09-12T09:30:50;18.20;99.90
52397;DHT22;38322;53.108;6.308;2022-09-12T09:33:21;18.30;99.90
52397;DHT22;38322;53.108;6.308;2022-09-12T09:35:54;18.30;99.90
52397;DHT22;38322;53.108;6.308;2022-09-12T09:38:39;18.40;99.90
52397;DHT22;38322;53.108;6.308;2022-09-12T09:43:56;18.50;99.90
52397;DHT22;38322;53.108;6.308;2022-09-12T09:46:22;18.50;99.90
52397;DHT22;38322;53.108;6.308;2022-09-12T09:48:49;18.40;99.90
52397;DHT22;38322;53.108;6.308;2022-09-12T09:51:19;18.40;99.90
52397;DHT22;38322;53.108;6.308;2022-09-12T09:53:57;18.40;99.90
52397;DHT22;38322;53.108;6.308;2022-09-12T09:56:36;18.50;99.90
52397;DHT22;38322;53.108;6.308;2022-09-12T09:59:24;18.60;99.90
52397;DHT22;38322;53.108;6.308;2022-09-12T10:01:55;18.70;99.90
52397;DHT22;38322;53.108;6.308;2022-09-12T10:04:27;18.80;99.90
52397;DHT22;38322;53.108;6.308;2022-09-12T10:06:57;18.90;99.90
52397;DHT22;38322;53.108;6.308;2022-09-12T10:09:26;18.90;99.90
52397;DHT22;38322;53.108;6.308;2022-09-12T10:11:54;19.00;99.90
52397;DHT22;38322;53.108;6.308;2022-09-12T10:17:02;19.30;99.90
52397;DHT22;38322;53.108;6.308;2022-09-12T10:19:35;19.30;99.90
52397;DHT22;38322;53.108;6.308;2022-09-12T10:22:03;19.30;99.90
52397;DHT22;38322;53.108;6.308;2022-09-12T10:24:38;19.40;99.90
52397;DHT22;38322;53.108;6.308;2022-09-12T10:28:11;19.50;99.90
52397;DHT22;38322;53.108;6.308;2022-09-12T10:34:30;19.70;99.90
52397;DHT22;38322;53.108;6.308;2022-09-12T10:57:26;20.20;99.90
52397;DHT22;38322;53.108;6.308;2022-09-12T11:08:05;20.40;99.90
52397;DHT22;38322;53.108;6.308;2022-09-12T11:16:47;20.70;99.90
52397;DHT22;38322;53.108;6.308;2022-09-12T11:23:12;20.80;99.90
52397;DHT22;38322;53.108;6.308;2022-09-12T11:30:08;20.90;99.90
52397;DHT22;38322;53.108;6.308;2022-09-12T11:46:05;20.90;99.90
52397;DHT22;38322;53.108;6.308;2022-09-12T11:52:28;21.10;99.90
52397;DHT22;38322;53.108;6.308;2022-09-12T11:55:05;21.30;99.90
52397;DHT22;38322;53.108;6.308;2022-09-12T11:57:43;21.50;99.90
52397;DHT22;38322;53.108;6.308;2022-09-12T12:00:22;21.70;99.90
52397;DHT22;38322;53.108;6.308;2022-09-12T12:05:42;22.00;99.90
52397;DHT22;38322;53.108;6.308;2022-09-12T12:08:10;22.20;99.90
52397;DHT22;38322;53.108;6.308;2022-09-12T12:10:49;22.20;99.90
52397;DHT22;38322;53.108;6.308;2022-09-12T12:15:54;22.20;99.90
52397;DHT22;38322;53.108;6.308;2022-09-12T12:18:27;22.20;99.90
52397;DHT22;38322;53.108;6.308;2022-09-12T12:20:54;22.20;99.90
52397;DHT22;38322;53.108;6.308;2022-09-12T12:23:28;22.20;99.90
52397;DHT22;38322;53.108;6.308;2022-09-12T12:25:57;22.10;99.90
52397;DHT22;38322;53.108;6.308;2022-09-12T12:31:08;22.20;99.90
52397;DHT22;38322;53.108;6.308;2022-09-12T12:36:07;22.30;99.90
52397;DHT22;38322;53.108;6.308;2022-09-12T12:38:33;22.40;99.90
52397;DHT22;38322;53.108;6.308;2022-09-12T12:43:44;22.70;99.90
52397;DHT22;38322;53.108;6.308;2022-09-12T12:46:13;22.80;99.90
52397;DHT22;38322;53.108;6.308;2022-09-12T12:48:46;22.90;99.90
52397;DHT22;38322;53.108;6.308;2022-09-12T12:51:35;22.90;99.90
52397;DHT22;38322;53.108;6.308;2022-09-12T12:54:04;22.80;99.90
52397;DHT22;38322;53.108;6.308;2022-09-12T12:56:38;22.90;99.90
52397;DHT22;38322;53.108;6.308;2022-09-12T12:59:16;23.00;99.90
52397;DHT22;38322;53.108;6.308;2022-09-12T13:01:46;22.90;99.90
52397;DHT22;38322;53.108;6.308;2022-09-12T13:04:16;23.00;99.90
52397;DHT22;38322;53.108;6.308;2022-09-12T13:06:45;22.90;99.90
52397;DHT22;38322;53.108;6.308;2022-09-12T13:11:39;23.00;99.90
52397;DHT22;38322;53.108;6.308;2022-09-12T13:14:32;23.00;99.90
52397;DHT22;38322;53.108;6.308;2022-09-12T13:16:55;23.00;99.90
52397;DHT22;38322;53.108;6.308;2022-09-12T13:19:29;22.90;99.90
52397;DHT22;38322;53.108;6.308;2022-09-12T13:21:59;22.90;99.90
52397;DHT22;38322;53.108;6.308;2022-09-12T13:24:25;22.90;99.90
52397;DHT22;38322;53.108;6.308;2022-09-12T13:26:51;23.00;99.90
52397;DHT22;38322;53.108;6.308;2022-09-12T13:29:20;22.90;99.90
52397;DHT22;38322;53.108;6.308;2022-09-12T13:31:51;23.10;99.90
52397;DHT22;38322;53.108;6.308;2022-09-12T13:34:22;23.10;99.90
52397;DHT22;38322;53.108;6.308;2022-09-12T13:39:37;23.30;99.90
52397;DHT22;38322;53.108;6.308;2022-09-12T13:47:35;23.10;99.90
52397;DHT22;38322;53.108;6.308;2022-09-12T13:50:03;23.10;99.90
52397;DHT22;38322;53.108;6.308;2022-09-12T13:52:33;23.20;99.90
52397;DHT22;38322;53.108;6.308;2022-09-12T13:55:04;23.20;99.90
52397;DHT22;38322;53.108;6.308;2022-09-12T14:00:00;23.30;99.90
52397;DHT22;38322;53.108;6.308;2022-09-12T14:02:28;23.30;99.90
52397;DHT22;38322;53.108;6.308;2022-09-12T14:04:56;23.30;99.90
52397;DHT22;38322;53.108;6.308;2022-09-12T14:07:46;23.30;99.90
52397;DHT22;38322;53.108;6.308;2022-09-12T14:10:33;23.30;99.90
52397;DHT22;38322;53.108;6.308;2022-09-12T14:13:02;23.30;99.90
52397;DHT22;38322;53.108;6.308;2022-09-12T14:15:31;23.30;99.90
52397;DHT22;38322;53.108;6.308;2022-09-12T14:18:00;23.40;99.90
52397;DHT22;38322;53.108;6.308;2022-09-12T14:20:28;23.40;99.90
52397;DHT22;38322;53.108;6.308;2022-09-12T14:23:05;23.30;99.90
52397;DHT22;38322;53.108;6.308;2022-09-12T14:25:36;23.40;99.90
52397;DHT22;38322;53.108;6.308;2022-09-12T14:28:09;23.40;99.90
52397;DHT22;38322;53.108;6.308;2022-09-12T14:30:37;23.40;99.90
52397;DHT22;38322;53.108;6.308;2022-09-12T14:35:35;23.40;99.90
52397;DHT22;38322;53.108;6.308;2022-09-12T14:40:48;23.50;99.90
52397;DHT22;38322;53.108;6.308;2022-09-12T14:43:19;23.50;99.90
52397;DHT22;38322;53.108;6.308;2022-09-12T14:45:50;23.40;99.90
52397;DHT22;38322;53.108;6.308;2022-09-12T14:48:18;23.40;99.90
52397;DHT22;38322;53.108;6.308;2022-09-12T14:50:48;23.40;99.90
52397;DHT22;38322;53.108;6.308;2022-09-12T14:55:45;23.50;99.90
52397;DHT22;38322;53.108;6.308;2022-09-12T14:58:23;23.60;99.90
52397;DHT22;38322;53.108;6.308;2022-09-12T15:00:54;23.50;99.90
52397;DHT22;38322;53.108;6.308;2022-09-12T15:03:28;23.50;99.90
52397;DHT22;38322;53.108;6.308;2022-09-12T15:05:54;23.50;99.90
52397;DHT22;38322;53.108;6.308;2022-09-12T15:08:20;23.60;99.90
52397;DHT22;38322;53.108;6.308;2022-09-12T15:10:46;23.70;99.90
52397;DHT22;38322;53.108;6.308;2022-09-12T15:13:16;23.80;99.90
52397;DHT22;38322;53.108;6.308;2022-09-12T15:15:47;23.80;99.90
52397;DHT22;38322;53.108;6.308;2022-09-12T15:18:13;23.80;99.90
52397;DHT22;38322;53.108;6.308;2022-09-12T15:20:41;23.70;99.90
52397;DHT22;38322;53.108;6.308;2022-09-12T15:25:40;23.70;99.90
52397;DHT22;38322;53.108;6.308;2022-09-12T15:28:16;23.60;99.90
52397;DHT22;38322;53.108;6.308;2022-09-12T15:30:42;23.50;99.90
52397;DHT22;38322;53.108;6.308;2022-09-12T15:33:10;23.40;99.90
52397;DHT22;38322;53.108;6.308;2022-09-12T15:35:36;23.30;99.90
52397;DHT22;38322;53.108;6.308;2022-09-12T15:38:02;23.30;99.90
52397;DHT22;38322;53.108;6.308;2022-09-12T15:40:28;23.10;99.90
52397;DHT22;38322;53.108;6.308;2022-09-12T15:42:53;23.10;99.90
52397;DHT22;38322;53.108;6.308;2022-09-12T15:45:24;23.00;99.90
52397;DHT22;38322;53.108;6.308;2022-09-12T15:47:52;22.90;99.90
52397;DHT22;38322;53.108;6.308;2022-09-12T15:50:17;22.80;99.90
52397;DHT22;38322;53.108;6.308;2022-09-12T15:52:43;22.70;99.90
52397;DHT22;38322;53.108;6.308;2022-09-12T15:55:18;22.70;99.90
52397;DHT22;38322;53.108;6.308;2022-09-12T15:57:45;22.70;99.90
52397;DHT22;38322;53.108;6.308;2022-09-12T16:00:12;22.70;99.90
52397;DHT22;38322;53.108;6.308;2022-09-12T16:02:38;22.60;99.90
52397;DHT22;38322;53.108;6.308;2022-09-12T16:05:05;22.60;99.90
52397;DHT22;38322;53.108;6.308;2022-09-12T16:07:35;22.60;99.90
52397;DHT22;38322;53.108;6.308;2022-09-12T16:10:01;22.60;99.90
52397;DHT22;38322;53.108;6.308;2022-09-12T16:12:26;22.60;99.90
52397;DHT22;38322;53.108;6.308;2022-09-12T16:14:52;22.50;99.90
52397;DHT22;38322;53.108;6.308;2022-09-12T16:17:18;22.60;99.90
52397;DHT22;38322;53.108;6.308;2022-09-12T16:19:44;22.60;99.90
52397;DHT22;38322;53.108;6.308;2022-09-12T16:22:10;22.60;99.90
52397;DHT22;38322;53.108;6.308;2022-09-12T16:24:35;22.60;99.90
52397;DHT22;38322;53.108;6.308;2022-09-12T16:27:02;22.50;99.90
52397;DHT22;38322;53.108;6.308;2022-09-12T16:29:28;22.50;99.90
52397;DHT22;38322;53.108;6.308;2022-09-12T16:31:54;22.50;99.90
52397;DHT22;38322;53.108;6.308;2022-09-12T16:34:19;22.40;99.90
52397;DHT22;38322;53.108;6.308;2022-09-12T16:36:45;22.40;99.90
52397;DHT22;38322;53.108;6.308;2022-09-12T16:39:12;22.30;99.90
52397;DHT22;38322;53.108;6.308;2022-09-12T16:41:37;22.30;99.90
52397;DHT22;38322;53.108;6.308;2022-09-12T16:44:06;22.20;99.90
52397;DHT22;38322;53.108;6.308;2022-09-12T16:46:32;22.10;99.90
52397;DHT22;38322;53.108;6.308;2022-09-12T16:48:59;22.10;99.90
52397;DHT22;38322;53.108;6.308;2022-09-12T16:51:29;22.00;99.90
52397;DHT22;38322;53.108;6.308;2022-09-12T16:53:55;22.00;99.90
52397;DHT22;38322;53.108;6.308;2022-09-12T16:56:22;22.00;99.90
52397;DHT22;38322;53.108;6.308;2022-09-12T16:58:48;22.00;99.90
52397;DHT22;38322;53.108;6.308;2022-09-12T17:01:17;22.00;99.90
52397;DHT22;38322;53.108;6.308;2022-09-12T17:03:43;21.90;99.90
52397;DHT22;38322;53.108;6.308;2022-09-12T17:06:12;21.90;99.90
52397;DHT22;38322;53.108;6.308;2022-09-12T17:08:40;21.90;99.90
52397;DHT22;38322;53.108;6.308;2022-09-12T17:11:12;21.80;99.90
52397;DHT22;38322;53.108;6.308;2022-09-12T17:13:38;21.80;99.90
52397;DHT22;38322;53.108;6.308;2022-09-12T17:16:06;21.70;99.90
52397;DHT22;38322;53.108;6.308;2022-09-12T17:18:32;21.60;99.90
52397;DHT22;38322;53.108;6.308;2022-09-12T17:20:58;21.60;99.90
52397;DHT22;38322;53.108;6.308;2022-09-12T17:23:24;21.50;99.90
52397;DHT22;38322;53.108;6.308;2022-09-12T17:25:50;21.40;99.90
52397;DHT22;38322;53.108;6.308;2022-09-12T17:28:17;21.30;99.90
52397;DHT22;38322;53.108;6.308;2022-09-12T17:30:43;21.20;99.90
52397;DHT22;38322;53.108;6.308;2022-09-12T17:33:09;21.10;99.90
52397;DHT22;38322;53.108;6.308;2022-09-12T17:35:36;21.00;99.90
52397;DHT22;38322;53.108;6.308;2022-09-12T17:38:03;20.90;99.90
52397;DHT22;38322;53.108;6.308;2022-09-12T17:40:29;20.80;99.90
52397;DHT22;38322;53.108;6.308;2022-09-12T17:42:56;20.80;99.90
52397;DHT22;38322;53.108;6.308;2022-09-12T17:45:22;20.60;99.90
52397;DHT22;38322;53.108;6.308;2022-09-12T17:47:48;20.50;99.90
52397;DHT22;38322;53.108;6.308;2022-09-12T17:50:14;20.40;99.90
52397;DHT22;38322;53.108;6.308;2022-09-12T17:52:46;20.40;99.90
52397;DHT22;38322;53.108;6.308;2022-09-12T17:55:12;20.40;99.90
52397;DHT22;38322;53.108;6.308;2022-09-12T17:57:40;20.30;99.90
52397;DHT22;38322;53.108;6.308;2022-09-12T18:00:07;20.30;99.90
52397;DHT22;38322;53.108;6.308;2022-09-12T18:02:33;20.20;99.90
52397;DHT22;38322;53.108;6.308;2022-09-12T18:05:00;20.10;99.90
52397;DHT22;38322;53.108;6.308;2022-09-12T18:07:30;20.00;99.90
52397;DHT22;38322;53.108;6.308;2022-09-12T18:09:56;20.00;99.90
52397;DHT22;38322;53.108;6.308;2022-09-12T18:12:23;19.90;99.90
52397;DHT22;38322;53.108;6.308;2022-09-12T18:14:49;19.90;99.90
52397;DHT22;38322;53.108;6.308;2022-09-12T18:17:15;19.80;99.90
52397;DHT22;38322;53.108;6.308;2022-09-12T18:19:41;19.80;99.90
52397;DHT22;38322;53.108;6.308;2022-09-12T18:22:08;19.80;99.90
52397;DHT22;38322;53.108;6.308;2022-09-12T18:24:34;19.70;99.90
52397;DHT22;38322;53.108;6.308;2022-09-12T18:27:00;19.60;99.90
52397;DHT22;38322;53.108;6.308;2022-09-12T18:29:28;19.50;99.90
52397;DHT22;38322;53.108;6.308;2022-09-12T18:31:55;19.50;99.90
52397;DHT22;38322;53.108;6.308;2022-09-12T18:34:21;19.40;99.90
52397;DHT22;38322;53.108;6.308;2022-09-12T18:36:49;19.40;99.90
52397;DHT22;38322;53.108;6.308;2022-09-12T18:39:16;19.30;99.90
52397;DHT22;38322;53.108;6.308;2022-09-12T18:41:41;19.30;99.90
52397;DHT22;38322;53.108;6.308;2022-09-12T18:44:09;19.30;99.90
52397;DHT22;38322;53.108;6.308;2022-09-12T18:46:36;19.30;99.90
52397;DHT22;38322;53.108;6.308;2022-09-12T18:49:02;19.20;99.90
52397;DHT22;38322;53.108;6.308;2022-09-12T18:51:31;19.20;99.90
52397;DHT22;38322;53.108;6.308;2022-09-12T18:54:01;19.20;99.90
52397;DHT22;38322;53.108;6.308;2022-09-12T18:56:30;19.10;99.90
52397;DHT22;38322;53.108;6.308;2022-09-12T18:58:58;19.20;99.90
52397;DHT22;38322;53.108;6.308;2022-09-12T19:01:26;19.20;99.90
52397;DHT22;38322;53.108;6.308;2022-09-12T19:03:53;19.20;99.90
52397;DHT22;38322;53.108;6.308;2022-09-12T19:06:22;19.10;99.90
52397;DHT22;38322;53.108;6.308;2022-09-12T19:08:50;19.10;99.90
52397;DHT22;38322;53.108;6.308;2022-09-12T19:11:17;19.00;99.90
52397;DHT22;38322;53.108;6.308;2022-09-12T19:13:46;19.00;99.90
52397;DHT22;38322;53.108;6.308;2022-09-12T19:16:15;18.90;99.90
52397;DHT22;38322;53.108;6.308;2022-09-12T19:18:42;18.80;99.90
52397;DHT22;38322;53.108;6.308;2022-09-12T19:21:14;18.90;99.90
52397;DHT22;38322;53.108;6.308;2022-09-12T19:23:40;18.80;99.90
52397;DHT22;38322;53.108;6.308;2022-09-12T19:26:07;18.70;99.90
52397;DHT22;38322;53.108;6.308;2022-09-12T19:28:34;18.70;99.90
52397;DHT22;38322;53.108;6.308;2022-09-12T19:31:05;18.70;99.90
52397;DHT22;38322;53.108;6.308;2022-09-12T19:33:31;18.70;99.90
52397;DHT22;38322;53.108;6.308;2022-09-12T19:36:02;18.70;99.90
52397;DHT22;38322;53.108;6.308;2022-09-12T19:38:29;18.70;99.90
52397;DHT22;38322;53.108;6.308;2022-09-12T19:40:57;18.70;99.90
52397;DHT22;38322;53.108;6.308;2022-09-12T19:43:24;18.70;99.90
52397;DHT22;38322;53.108;6.308;2022-09-12T19:45:50;18.70;99.90
52397;DHT22;38322;53.108;6.308;2022-09-12T19:48:18;18.60;99.90
52397;DHT22;38322;53.108;6.308;2022-09-12T19:50:44;18.50;99.90
52397;DHT22;38322;53.108;6.308;2022-09-12T19:53:10;18.50;99.90
52397;DHT22;38322;53.108;6.308;2022-09-12T19:55:36;18.50;99.90
52397;DHT22;38322;53.108;6.308;2022-09-12T19:58:02;18.50;99.90
52397;DHT22;38322;53.108;6.308;2022-09-12T20:00:28;18.50;99.90
